^^
Your Local Weather - Clay, NY Station Historical Data
Daily Summary for February 18, 2017 Units:  English    Metric   Both
« Previous Day
Next Day »
Daily Weekly Monthly Yearly Custom
  High: Low: Average:
Temperature: 60.4 °F 16.9 °F 39.6 °F
Dew Point: 36.6 °F 13.7 °F 26.6 °F
Humidity: 88% 38% 63%
Wind Speed: 4.0mph 0.0mph 1.3mph
Wind Gust: 9.0mph - -
Wind- - SSE
Pressure: 29.81 in 29.50 in -
Precipitation: 0.04 in    
Historical Graphs
 
 
Tabular Data for February 18, 2017
Time Temperature Dew Point Pressure Wind Wind Speed Wind Gust Humidity Rainfall Rate (Hourly) solar
00:02 17.0 °F 14.1 °F 29.81 in Calm   1.0 mph 88% 0.00 in 0 W/m2
00:08 16.9 °F 14.0 °F 29.80 in Calm   1.0 mph 88% 0.00 in 0 W/m2
00:14 17.0 °F 14.1 °F 29.80 in Calm     88% 0.00 in 0 W/m2
00:20 17.2 °F 14.3 °F 29.80 in Calm   1.0 mph 88% 0.00 in 0 W/m2
00:26 16.9 °F 13.7 °F 29.79 in NE 1.0 mph 2.0 mph 87% 0.00 in 0 W/m2
00:32 17.8 °F 14.8 °F 29.78 in ENE 2.0 mph 2.0 mph 88% 0.00 in 0 W/m2
00:38 19.0 °F 16.0 °F 29.78 in ENE 1.0 mph 2.0 mph 88% 0.00 in 0 W/m2
00:44 19.2 °F 16.0 °F 29.78 in Calm   1.0 mph 87% 0.00 in 0 W/m2
00:50 18.5 °F 14.7 °F 29.78 in Calm   2.0 mph 85% 0.00 in 0 W/m2
00:56 18.6 °F 14.8 °F 29.78 in ENE 1.0 mph 2.0 mph 85% 0.00 in 0 W/m2
01:02 18.4 °F 14.9 °F 29.78 in ENE 1.0 mph 2.0 mph 86% 0.00 in 0 W/m2
01:08 18.4 °F 14.9 °F 29.78 in Calm   2.0 mph 86% 0.00 in 0 W/m2
01:14 18.4 °F 14.9 °F 29.78 in Calm     86% 0.00 in 0 W/m2
01:20 18.7 °F 15.2 °F 29.77 in ENE 1.0 mph 3.0 mph 86% 0.00 in 0 W/m2
01:26 19.7 °F 16.2 °F 29.77 in ENE 2.0 mph 3.0 mph 86% 0.00 in 0 W/m2
01:32 20.4 °F 16.6 °F 29.77 in NE 3.0 mph 6.0 mph 85% 0.00 in 0 W/m2
01:38 20.9 °F 16.8 °F 29.77 in ENE 2.0 mph 6.0 mph 84% 0.00 in 0 W/m2
01:40 21.0 °F 16.9 °F 29.77 in ENE 2.0 mph 2.0 mph 84% 0.00 in 0 W/m2
01:46 21.0 °F 16.6 °F 29.76 in East 2.0 mph 3.0 mph 83% 0.00 in 0 W/m2
01:52 21.4 °F 17.0 °F 29.76 in East 2.0 mph 2.0 mph 83% 0.00 in 0 W/m2
01:58 21.3 °F 16.9 °F 29.76 in East 1.0 mph 2.0 mph 83% 0.00 in 0 W/m2
02:04 21.3 °F 16.9 °F 29.75 in East 1.0 mph 1.0 mph 83% 0.00 in 0 W/m2
02:10 21.5 °F 17.1 °F 29.75 in East 1.0 mph 1.0 mph 83% 0.00 in 0 W/m2
02:16 21.5 °F 17.1 °F 29.75 in Calm   1.0 mph 83% 0.00 in 0 W/m2
02:22 21.5 °F 17.1 °F 29.75 in Calm   3.0 mph 83% 0.00 in 0 W/m2
02:28 21.4 °F 17.0 °F 29.75 in ESE 1.0 mph 3.0 mph 83% 0.00 in 0 W/m2
02:34 21.4 °F 16.8 °F 29.75 in Calm   2.0 mph 82% 0.00 in 0 W/m2
02:40 21.1 °F 16.5 °F 29.74 in Calm     82% 0.00 in 0 W/m2
02:46 20.7 °F 16.1 °F 29.74 in Calm   1.0 mph 82% 0.00 in 0 W/m2
02:52 20.2 °F 15.9 °F 29.74 in Calm     83% 0.00 in 0 W/m2
02:58 19.8 °F 15.5 °F 29.74 in Calm     83% 0.00 in 0 W/m2
03:04 19.1 °F 14.8 °F 29.73 in Calm   4.0 mph 83% 0.00 in 0 W/m2
03:10 19.3 °F 15.5 °F 29.73 in East 1.0 mph 3.0 mph 85% 0.00 in 0 W/m2
03:16 20.0 °F 16.2 °F 29.73 in ENE 2.0 mph 3.0 mph 85% 0.00 in 0 W/m2
03:22 19.9 °F 15.8 °F 29.73 in ENE 2.0 mph 2.0 mph 84% 0.00 in 0 W/m2
03:28 20.1 °F 16.0 °F 29.72 in NE 1.0 mph 2.0 mph 84% 0.00 in 0 W/m2
03:34 20.1 °F 16.0 °F 29.72 in East 1.0 mph 5.0 mph 84% 0.00 in 0 W/m2
03:40 20.3 °F 16.2 °F 29.72 in East 2.0 mph 2.0 mph 84% 0.00 in 0 W/m2
03:46 20.2 °F 16.1 °F 29.71 in ENE 1.0 mph 4.0 mph 84% 0.00 in 0 W/m2
03:52 20.2 °F 16.1 °F 29.71 in Calm     84% 0.00 in 0 W/m2
03:58 20.7 °F 16.6 °F 29.71 in Calm   1.0 mph 84% 0.00 in 0 W/m2
04:04 20.7 °F 16.4 °F 29.71 in Calm   1.0 mph 83% 0.00 in 0 W/m2
04:10 20.5 °F 16.2 °F 29.71 in Calm     83% 0.00 in 0 W/m2
04:16 20.2 °F 16.1 °F 29.70 in East 1.0 mph 2.0 mph 84% 0.00 in 0 W/m2
04:22 20.0 °F 15.9 °F 29.70 in Calm   1.0 mph 84% 0.00 in 0 W/m2
04:28 19.8 °F 15.7 °F 29.70 in Calm   1.0 mph 84% 0.00 in 0 W/m2
04:34 19.6 °F 15.6 °F 29.70 in Calm     84% 0.00 in 0 W/m2
04:40 19.4 °F 15.4 °F 29.70 in Calm     84% 0.00 in 0 W/m2
04:46 19.3 °F 15.5 °F 29.70 in Calm     85% 0.00 in 0 W/m2
04:52 18.9 °F 14.9 °F 29.69 in Calm     84% 0.00 in 0 W/m2
04:58 18.9 °F 15.1 °F 29.69 in East 1.0 mph 2.0 mph 85% 0.00 in 0 W/m2
05:04 18.7 °F 14.9 °F 29.69 in Calm   1.0 mph 85% 0.00 in 0 W/m2
05:10 18.4 °F 14.6 °F 29.69 in Calm   1.0 mph 85% 0.00 in 0 W/m2
05:16 18.6 °F 15.1 °F 29.69 in East 1.0 mph 1.0 mph 86% 0.00 in 0 W/m2
05:22 18.7 °F 15.2 °F 29.69 in East 1.0 mph 1.0 mph 86% 0.00 in 0 W/m2
05:28 19.3 °F 15.8 °F 29.69 in Calm   1.0 mph 86% 0.00 in 0 W/m2
05:34 19.5 °F 15.7 °F 29.69 in Calm   1.0 mph 85% 0.00 in 0 W/m2
05:40 19.5 °F 15.7 °F 29.69 in Calm     85% 0.00 in 0 W/m2
05:46 19.2 °F 15.2 °F 29.69 in Calm     84% 0.00 in 0 W/m2
05:52 18.7 °F 14.9 °F 29.69 in Calm   1.0 mph 85% 0.00 in 0 W/m2
05:58 18.8 °F 15.3 °F 29.69 in East 1.0 mph 1.0 mph 86% 0.00 in 0 W/m2
06:04 18.9 °F 15.4 °F 29.69 in ENE 1.0 mph 2.0 mph 86% 0.00 in 0 W/m2
06:10 19.3 °F 15.8 °F 29.68 in ENE 1.0 mph 2.0 mph 86% 0.00 in 0 W/m2
06:16 19.4 °F 15.6 °F 29.68 in ENE 2.0 mph 2.0 mph 85% 0.00 in 0 W/m2
06:22 19.5 °F 15.5 °F 29.68 in East 2.0 mph 3.0 mph 84% 0.00 in 0 W/m2
06:28 19.6 °F 15.8 °F 29.67 in ENE 1.0 mph 3.0 mph 85% 0.00 in 0 W/m2
06:34 19.9 °F 16.1 °F 29.67 in ENE 1.0 mph 5.0 mph 85% 0.00 in 0 W/m2
06:40 20.3 °F 16.2 °F 29.67 in ENE 1.0 mph 1.0 mph 84% 0.00 in 0 W/m2
06:46 20.1 °F 16.0 °F 29.67 in ENE 1.0 mph 1.0 mph 84% 0.00 in 0 W/m2
06:52 20.6 °F 16.5 °F 29.66 in East 1.0 mph 1.0 mph 84% 0.00 in 0 W/m2
06:58 20.4 °F 16.1 °F 29.67 in Calm   1.0 mph 83% 0.00 in 5 W/m2
07:04 20.2 °F 15.9 °F 29.67 in Calm     83% 0.00 in 7 W/m2
07:10 19.9 °F 15.6 °F 29.67 in Calm     83% 0.00 in 11 W/m2
07:16 20.0 °F 15.9 °F 29.67 in Calm   1.0 mph 84% 0.00 in 14 W/m2
07:22 19.9 °F 15.8 °F 29.67 in Calm     84% 0.00 in 18 W/m2
07:34 20.5 °F 16.4 °F 29.67 in Calm     84% 0.00 in 26 W/m2
07:40 21.1 °F 17.0 °F 29.66 in ENE 1.0 mph 1.0 mph 84% 0.00 in 39 W/m2
07:46 21.8 °F 17.4 °F 29.66 in East 1.0 mph 2.0 mph 83% 0.00 in 33 W/m2
07:52 22.7 °F 18.0 °F 29.66 in East 1.0 mph 1.0 mph 82% 0.00 in 42 W/m2
07:58 23.8 °F 18.5 °F 29.66 in East 2.0 mph 4.0 mph 80% 0.00 in 49 W/m2
08:04 24.7 °F 18.8 °F 29.66 in East 2.0 mph 3.0 mph 78% 0.00 in 128 W/m2
08:10 25.4 °F 19.2 °F 29.66 in East 1.0 mph 2.0 mph 77% 0.00 in 172 W/m2
08:16 26.3 °F 19.5 °F 29.66 in East 1.0 mph 2.0 mph 75% 0.00 in 132 W/m2
08:22 26.9 °F 19.7 °F 29.66 in ENE 2.0 mph 3.0 mph 74% 0.00 in 188 W/m2
08:28 27.3 °F 19.8 °F 29.66 in ENE 2.0 mph 4.0 mph 73% 0.00 in 188 W/m2
08:34 27.6 °F 19.8 °F 29.66 in East 2.0 mph 4.0 mph 72% 0.00 in 207 W/m2
08:40 28.5 °F 20.3 °F 29.65 in SE 2.0 mph 2.0 mph 71% 0.00 in 225 W/m2
08:46 29.1 °F 20.5 °F 29.64 in ENE 2.0 mph 2.0 mph 70% 0.00 in 262 W/m2
08:52 29.6 °F 20.7 °F 29.64 in ENE 2.0 mph 2.0 mph 69% 0.00 in 297 W/m2
08:58 30.3 °F 21.0 °F 29.64 in East 2.0 mph 2.0 mph 68% 0.00 in 316 W/m2
09:04 30.8 °F 21.1 °F 29.64 in East 2.0 mph 2.0 mph 67% 0.00 in 332 W/m2
09:10 31.1 °F 21.1 °F 29.64 in SE 2.0 mph 3.0 mph 66% 0.00 in 341 W/m2
09:16 32.1 °F 21.7 °F 29.64 in ENE 2.0 mph 3.0 mph 65% 0.00 in 346 W/m2
09:22 32.9 °F 22.8 °F 29.64 in SE 1.0 mph 3.0 mph 66% 0.00 in 380 W/m2
09:28 33.6 °F 22.7 °F 29.63 in East 1.0 mph 3.0 mph 64% 0.00 in 396 W/m2
09:34 34.7 °F 23.4 °F 29.63 in East 1.0 mph 1.0 mph 63% 0.00 in 411 W/m2
09:40 35.5 °F 23.4 °F 29.63 in ENE 1.0 mph 1.0 mph 61% 0.00 in 432 W/m2
09:46 36.3 °F 23.3 °F 29.63 in ENE 1.0 mph 3.0 mph 59% 0.00 in 410 W/m2
09:52 36.3 °F 23.7 °F 29.64 in ENE 1.0 mph 2.0 mph 60% 0.00 in 353 W/m2
09:58 36.5 °F 23.5 °F 29.63 in Calm   2.0 mph 59% 0.00 in 515 W/m2
10:04 37.5 °F 24.9 °F 29.63 in ENE 1.0 mph 2.0 mph 60% 0.00 in 533 W/m2
10:10 37.9 °F 24.4 °F 29.63 in ESE 1.0 mph 1.0 mph 58% 0.00 in 260 W/m2
10:16 38.2 °F 24.3 °F 29.62 in NE 2.0 mph 3.0 mph 57% 0.00 in 519 W/m2
10:22 38.6 °F 24.2 °F 29.61 in ENE 2.0 mph 2.0 mph 56% 0.00 in 580 W/m2
10:28 38.8 °F 24.4 °F 29.61 in ENE 2.0 mph 4.0 mph 56% 0.00 in 552 W/m2
10:34 39.2 °F 24.8 °F 29.60 in ENE 2.0 mph 8.0 mph 56% 0.00 in 577 W/m2
10:40 39.5 °F 25.1 °F 29.60 in East 2.0 mph 2.0 mph 56% 0.00 in 480 W/m2
10:46 39.8 °F 25.4 °F 29.60 in East 1.0 mph 3.0 mph 56% 0.00 in 193 W/m2
10:52 41.7 °F 25.8 °F 29.59 in NE 1.0 mph 1.0 mph 53% 0.00 in 566 W/m2
10:58 41.4 °F 25.1 °F 29.59 in ENE 2.0 mph 4.0 mph 52% 0.00 in 568 W/m2
11:04 42.5 °F 26.6 °F 29.58 in East 2.0 mph 2.0 mph 53% 0.00 in 571 W/m2
11:10 44.2 °F 27.7 °F 29.58 in East 1.0 mph 3.0 mph 52% 0.00 in 577 W/m2
11:16 44.6 °F 27.6 °F 29.58 in East 1.0 mph 3.0 mph 51% 0.00 in 587 W/m2
11:22 45.8 °F 27.2 °F 29.58 in East 1.0 mph 1.0 mph 48% 0.00 in 591 W/m2
11:28 46.0 °F 27.9 °F 29.58 in East 1.0 mph 3.0 mph 49% 0.00 in 598 W/m2
11:34 48.2 °F 28.4 °F 29.58 in East 1.0 mph 1.0 mph 46% 0.00 in 603 W/m2
11:40 48.5 °F 28.6 °F 29.58 in Calm     46% 0.00 in 608 W/m2
11:46 49.6 °F 28.0 °F 29.58 in NE 1.0 mph 4.0 mph 43% 0.00 in 610 W/m2
11:52 49.7 °F 28.1 °F 29.57 in NE 1.0 mph 1.0 mph 43% 0.00 in 617 W/m2
11:58 49.8 °F 28.7 °F 29.57 in NE 1.0 mph 2.0 mph 44% 0.00 in 622 W/m2
12:02 50.8 °F 29.1 °F 29.57 in NE 1.0 mph 4.0 mph 43% 0.00 in 619 W/m2
12:04 50.1 °F 27.9 °F 29.57 in NE 1.0 mph 4.0 mph 42% 0.00 in 617 W/m2
12:06 49.9 °F 28.3 °F 29.57 in NNE 1.0 mph 4.0 mph 43% 0.00 in 617 W/m2
12:12 51.5 °F 29.1 °F 29.56 in NNE 1.0 mph 1.0 mph 42% 0.00 in 617 W/m2
12:18 52.1 °F 29.1 °F 29.56 in Calm   2.0 mph 41% 0.00 in 619 W/m2
12:24 51.2 °F 28.3 °F 29.56 in NE 1.0 mph 2.0 mph 41% 0.00 in 594 W/m2
12:30 52.5 °F 29.5 °F 29.55 in NE 1.0 mph 1.0 mph 41% 0.00 in 529 W/m2
12:36 53.2 °F 30.1 °F 29.55 in Calm   2.0 mph 41% 0.00 in 631 W/m2
12:40 53.4 °F 30.3 °F 29.55 in Calm     41% 0.00 in 626 W/m2
12:44 54.3 °F 31.1 °F 29.55 in Calm     41% 0.00 in 621 W/m2
12:50 55.4 °F 31.5 °F 29.55 in Calm     40% 0.00 in 624 W/m2
12:56 56.8 °F 33.9 °F 29.55 in WSW 1.0 mph 4.0 mph 42% 0.00 in 613 W/m2
13:02 57.5 °F 34.0 °F 29.54 in SW 3.0 mph 3.0 mph 41% 0.00 in 613 W/m2
13:08 57.7 °F 34.1 °F 29.54 in SW 3.0 mph 8.0 mph 41% 0.00 in 603 W/m2
13:14 57.9 °F 34.3 °F 29.54 in SW 4.0 mph 5.0 mph 41% 0.00 in 596 W/m2
13:20 58.2 °F 34.0 °F 29.54 in SW 3.0 mph 3.0 mph 40% 0.00 in 589 W/m2
13:26 58.5 °F 34.2 °F 29.54 in SW 3.0 mph 6.0 mph 40% 0.00 in 584 W/m2
13:32 58.2 °F 34.6 °F 29.53 in SW 4.0 mph 4.0 mph 41% 0.00 in 577 W/m2
13:38 58.4 °F 34.2 °F 29.53 in SW 4.0 mph 7.0 mph 40% 0.00 in 563 W/m2
13:44 58.6 °F 34.3 °F 29.53 in SSW 4.0 mph 4.0 mph 40% 0.00 in 571 W/m2
13:50 59.0 °F 34.7 °F 29.53 in SW 3.0 mph 4.0 mph 40% 0.00 in 566 W/m2
13:56 59.0 °F 34.7 °F 29.51 in SW 3.0 mph 5.0 mph 40% 0.00 in 559 W/m2
14:02 59.3 °F 34.3 °F 29.51 in WSW 3.0 mph 3.0 mph 39% 0.00 in 541 W/m2
14:08 59.0 °F 34.7 °F 29.50 in SW 3.0 mph 3.0 mph 40% 0.00 in 125 W/m2
14:14 59.3 °F 34.3 °F 29.50 in SW 3.0 mph 3.0 mph 39% 0.00 in 538 W/m2
14:19 59.5 °F 34.5 °F 29.50 in SW 2.0 mph 3.0 mph 39% 0.00 in 540 W/m2
14:26 60.2 °F 34.5 °F 29.50 in SW 2.0 mph 3.0 mph 38% 0.00 in 534 W/m2
14:32 60.1 °F 34.4 °F 29.50 in SW 3.0 mph 4.0 mph 38% 0.00 in 550 W/m2
14:38 60.4 °F 34.7 °F 29.50 in SW 3.0 mph 4.0 mph 38% 0.00 in 517 W/m2
14:44 60.4 °F 34.7 °F 29.50 in SW 3.0 mph 4.0 mph 38% 0.00 in 545 W/m2
14:50 60.3 °F 34.6 °F 29.50 in WNW 3.0 mph 5.0 mph 38% 0.00 in 162 W/m2
14:56 60.2 °F 34.5 °F 29.50 in SSW 4.0 mph 5.0 mph 38% 0.00 in 475 W/m2
15:02 60.1 °F 35.0 °F 29.50 in SW 3.0 mph 5.0 mph 39% 0.00 in 276 W/m2
15:08 59.8 °F 34.8 °F 29.50 in WSW 4.0 mph 5.0 mph 39% 0.00 in 229 W/m2
15:14 59.8 °F 34.8 °F 29.50 in SSW 4.0 mph 4.0 mph 39% 0.00 in 230 W/m2
15:20 59.1 °F 34.8 °F 29.50 in SW 2.0 mph 2.0 mph 40% 0.00 in 216 W/m2
15:26 59.1 °F 34.8 °F 29.50 in SSW 1.0 mph 2.0 mph 40% 0.00 in 323 W/m2
15:32 59.6 °F 34.6 °F 29.50 in SSW 2.0 mph 4.0 mph 39% 0.00 in 178 W/m2
15:38 59.5 °F 35.1 °F 29.50 in West 3.0 mph 5.0 mph 40% 0.00 in 241 W/m2
15:44 59.3 °F 35.0 °F 29.50 in SSW 3.0 mph 3.0 mph 40% 0.00 in 135 W/m2
15:50 59.2 °F 34.9 °F 29.50 in WSW 2.0 mph 2.0 mph 40% 0.00 in 163 W/m2
15:56 59.9 °F 34.9 °F 29.50 in SW 1.0 mph 2.0 mph 39% 0.00 in 297 W/m2
16:02 60.4 °F 35.3 °F 29.50 in SW 1.0 mph 4.0 mph 39% 0.00 in 216 W/m2
16:08 60.3 °F 35.2 °F 29.50 in SW 2.0 mph 5.0 mph 39% 0.00 in 251 W/m2
16:14 60.3 °F 35.2 °F 29.51 in WSW 2.0 mph 3.0 mph 39% 0.00 in 230 W/m2
16:20 59.8 °F 35.4 °F 29.51 in West 1.0 mph 1.0 mph 40% 0.00 in 200 W/m2
16:26 59.6 °F 35.2 °F 29.52 in West 1.0 mph 1.0 mph 40% 0.00 in 37 W/m2
16:32 59.4 °F 35.1 °F 29.52 in WSW 1.0 mph 4.0 mph 40% 0.00 in 33 W/m2
16:38 59.3 °F 35.0 °F 29.52 in West 2.0 mph 4.0 mph 40% 0.00 in 32 W/m2
16:43 59.2 °F 34.9 °F 29.53 in West 2.0 mph 3.0 mph 40% 0.00 in 30 W/m2
16:50 59.1 °F 34.8 °F 29.53 in West 3.0 mph 3.0 mph 40% 0.00 in 26 W/m2
16:56 58.9 °F 34.6 °F 29.53 in WSW 3.0 mph 8.0 mph 40% 0.00 in 25 W/m2
17:02 58.7 °F 34.4 °F 29.53 in WNW 3.0 mph 3.0 mph 40% 0.00 in 23 W/m2
17:08 58.2 °F 34.6 °F 29.53 in WNW 1.0 mph 3.0 mph 41% 0.00 in 19 W/m2
17:14 57.9 °F 34.3 °F 29.53 in WSW 1.0 mph 1.0 mph 41% 0.00 in 18 W/m2
17:20 57.6 °F 34.7 °F 29.53 in West 2.0 mph 5.0 mph 42% 0.00 in 14 W/m2
17:26 57.3 °F 34.4 °F 29.53 in SW 2.0 mph 5.0 mph 42% 0.00 in 12 W/m2
17:32 56.8 °F 34.5 °F 29.53 in WSW 1.0 mph 3.0 mph 43% 0.00 in 9 W/m2
17:38 56.5 °F 34.8 °F 29.53 in WSW 2.0 mph 3.0 mph 44% 0.00 in 5 W/m2
17:44 56.3 °F 34.6 °F 29.53 in WSW 2.0 mph 4.0 mph 44% 0.00 in 0 W/m2
17:50 56.1 °F 35.0 °F 29.54 in SW 1.0 mph 1.0 mph 45% 0.00 in 0 W/m2
17:56 55.6 °F 34.6 °F 29.54 in West 1.0 mph 4.0 mph 45% 0.00 in 0 W/m2
18:02 55.3 °F 34.9 °F 29.54 in West 1.0 mph 1.0 mph 46% 0.00 in 0 W/m2
18:08 54.6 °F 34.8 °F 29.55 in West 1.0 mph 1.0 mph 47% 0.00 in 0 W/m2
18:14 53.6 °F 34.9 °F 29.56 in Calm   2.0 mph 49% 0.00 in 0 W/m2
18:20 53.3 °F 35.1 °F 29.56 in NW 2.0 mph 3.0 mph 50% 0.00 in 0 W/m2
18:26 53.6 °F 34.9 °F 29.57 in NW 3.0 mph 4.0 mph 49% 0.00 in 0 W/m2
18:32 53.8 °F 35.1 °F 29.57 in WNW 2.0 mph 2.0 mph 49% 0.00 in 0 W/m2
18:38 53.3 °F 35.1 °F 29.57 in WNW 1.0 mph 2.0 mph 50% 0.00 in 0 W/m2
18:44 52.9 °F 35.2 °F 29.57 in Calm   1.0 mph 51% 0.00 in 0 W/m2
18:50 52.6 °F 35.0 °F 29.57 in WNW 1.0 mph 1.0 mph 51% 0.00 in 0 W/m2
18:56 52.4 °F 35.3 °F 29.57 in Calm   1.0 mph 52% 0.00 in 0 W/m2
19:02 51.8 °F 35.2 °F 29.58 in Calm     53% 0.00 in 0 W/m2
19:08 51.2 °F 34.6 °F 29.58 in Calm     53% 0.00 in 0 W/m2
19:14 50.8 °F 34.7 °F 29.58 in Calm     54% 0.00 in 0 W/m2
19:20 50.4 °F 34.8 °F 29.58 in Calm   1.0 mph 55% 0.00 in 0 W/m2
19:26 49.8 °F 34.7 °F 29.58 in Calm   1.0 mph 56% 0.00 in 0 W/m2
19:32 49.2 °F 34.6 °F 29.59 in Calm     57% 0.00 in 0 W/m2
19:38 49.1 °F 34.9 °F 29.59 in WNW 1.0 mph 3.0 mph 58% 0.00 in 0 W/m2
19:44 49.8 °F 35.2 °F 29.60 in West 1.0 mph 3.0 mph 57% 0.00 in 0 W/m2
19:50 49.9 °F 35.3 °F 29.60 in Calm     57% 0.00 in 0 W/m2
19:56 49.5 °F 34.9 °F 29.60 in Calm     57% 0.00 in 0 W/m2
20:08 48.6 °F 34.9 °F 29.60 in Calm   2.0 mph 59% 0.00 in 0 W/m2
20:14 48.4 °F 35.1 °F 29.60 in Calm     60% 0.00 in 0 W/m2
20:20 48.4 °F 35.1 °F 29.61 in Calm     60% 0.00 in 0 W/m2
20:26 48.6 °F 35.3 °F 29.61 in NW 1.0 mph 2.0 mph 60% 0.00 in 0 W/m2
20:32 49.0 °F 35.3 °F 29.61 in NW 1.0 mph 1.0 mph 59% 0.00 in 0 W/m2
20:38 49.0 °F 35.3 °F 29.61 in West 1.0 mph 4.0 mph 59% 0.00 in 0 W/m2
20:44 49.0 °F 35.3 °F 29.61 in Calm   1.0 mph 59% 0.00 in 0 W/m2
20:50 48.8 °F 35.5 °F 29.61 in WSW 1.0 mph 1.0 mph 60% 0.00 in 0 W/m2
21:02 48.6 °F 35.7 °F 29.61 in WSW 1.0 mph 2.0 mph 61% 0.00 in 0 W/m2
21:08 48.6 °F 35.7 °F 29.61 in WNW 1.0 mph 3.0 mph 61% 0.00 in 0 W/m2
21:14 48.5 °F 35.7 °F 29.61 in WSW 1.0 mph 2.0 mph 61% 0.00 in 0 W/m2
21:20 48.4 °F 36.0 °F 29.61 in SW 1.0 mph 1.0 mph 62% 0.00 in 0 W/m2
21:26 48.5 °F 35.7 °F 29.61 in WNW 2.0 mph 5.0 mph 61% 0.00 in 0 W/m2
21:32 48.8 °F 35.9 °F 29.61 in WSW 2.0 mph 3.0 mph 61% 0.00 in 0 W/m2
21:38 48.8 °F 35.9 °F 29.61 in SW 3.0 mph 3.0 mph 61% 0.00 in 0 W/m2
21:43 48.7 °F 35.8 °F 29.61 in WSW 2.0 mph 3.0 mph 61% 0.00 in 0 W/m2
21:50 48.7 °F 36.3 °F 29.61 in WSW 2.0 mph 2.0 mph 62% 0.00 in 0 W/m2
21:56 48.7 °F 35.8 °F 29.61 in West 2.0 mph 5.0 mph 61% 0.00 in 0 W/m2
22:02 48.4 °F 36.0 °F 29.61 in WSW 2.0 mph 2.0 mph 62% 0.00 in 0 W/m2
22:08 48.4 °F 36.0 °F 29.61 in West 3.0 mph 7.0 mph 62% 0.00 in 0 W/m2
22:14 48.3 °F 36.3 °F 29.61 in WSW 3.0 mph 5.0 mph 63% 0.00 in 0 W/m2
22:20 48.2 °F 36.2 °F 29.62 in West 2.0 mph 2.0 mph 63% 0.00 in 0 W/m2
22:26 48.1 °F 36.1 °F 29.62 in SSW 2.0 mph 3.0 mph 63% 0.00 in 0 W/m2
22:32 48.0 °F 36.0 °F 29.62 in SW 2.0 mph 2.0 mph 63% 0.00 in 0 W/m2
22:38 47.7 °F 35.7 °F 29.63 in West 2.0 mph 2.0 mph 63% 0.00 in 0 W/m2
22:44 47.5 °F 35.9 °F 29.63 in SW 1.0 mph 3.0 mph 64% 0.00 in 0 W/m2
22:50 47.5 °F 35.9 °F 29.63 in WSW 1.0 mph 9.0 mph 64% 0.00 in 0 W/m2
22:56 47.5 °F 35.9 °F 29.63 in SW 2.0 mph 9.0 mph 64% 0.00 in 0 W/m2
23:02 47.2 °F 36.0 °F 29.63 in SSW 1.0 mph 2.0 mph 65% 0.00 in 0 W/m2
23:08 47.0 °F 36.2 °F 29.63 in West 1.0 mph 2.0 mph 66% 0.00 in 0 W/m2
23:14 47.0 °F 36.2 °F 29.63 in West 1.0 mph 2.0 mph 66% 0.00 in 0 W/m2
23:20 47.1 °F 36.3 °F 29.63 in WNW 1.0 mph 1.0 mph 66% 0.00 in 0 W/m2
23:26 47.1 °F 36.3 °F 29.63 in WSW 2.0 mph 3.0 mph 66% 0.00 in 0 W/m2
23:32 47.0 °F 36.2 °F 29.63 in WSW 2.0 mph 3.0 mph 66% 0.00 in 0 W/m2
23:38 47.1 °F 36.3 °F 29.64 in West 2.0 mph 4.0 mph 66% 0.00 in 0 W/m2
23:44 47.1 °F 36.3 °F 29.64 in West 2.0 mph 2.0 mph 66% 0.00 in 0 W/m2
23:50 47.0 °F 36.6 °F 29.64 in West 1.0 mph 2.0 mph 67% 0.00 in 0 W/m2
23:56 47.0 °F 36.6 °F 29.64 in West 2.0 mph 2.0 mph 67% 0.00 in 0 W/m2
Country Meadow, Clay, NY, USA
Compliments of Weather Underground - 2 mb